createdAt,value
2023-11-09T00:01:13.502Z,100130.91
2023-11-09T00:03:41.080Z,100124.63
2023-11-09T00:06:08.407Z,100128.19
2023-11-09T00:08:35.592Z,100130.25
2023-11-09T00:11:02.622Z,100124.19
2023-11-09T00:13:29.680Z,100119.03
2023-11-09T00:15:57.127Z,100127.41
2023-11-09T00:18:24.150Z,100118.69
2023-11-09T00:20:54.157Z,100112.25
2023-11-09T00:23:21.677Z,100112.44
2023-11-09T00:25:49.093Z,100107.78
2023-11-09T00:28:16.524Z,100113.59
2023-11-09T00:30:44.483Z,100115.50
2023-11-09T00:33:11.693Z,100110.50
2023-11-09T00:35:40.472Z,100107.13
2023-11-09T00:38:09.022Z,100108.28
2023-11-09T00:40:37.085Z,100106.84
2023-11-09T00:43:04.018Z,100108.75
2023-11-09T00:45:35.477Z,100110.53
2023-11-09T00:48:04.151Z,100101.88
2023-11-09T00:50:31.432Z,100095.56
2023-11-09T00:52:58.429Z,100097.50
2023-11-09T00:55:25.405Z,100096.53
2023-11-09T00:57:52.338Z,100086.41
2023-11-09T01:00:19.449Z,100088.81
2023-11-09T01:02:49.882Z,100088.31
2023-11-09T01:05:17.646Z,100085.16
2023-11-09T01:07:45.284Z,100072.72
2023-11-09T01:10:12.373Z,100089.78
2023-11-09T01:12:39.306Z,100086.56
2023-11-09T01:15:06.808Z,100087.69
2023-11-09T01:17:37.380Z,100084.31
2023-11-09T01:20:04.676Z,100091.72
2023-11-09T01:22:31.773Z,100089.16
2023-11-09T01:24:59.462Z,100093.34
2023-11-09T01:27:26.508Z,100082.25
2023-11-09T01:29:53.594Z,100079.50
2023-11-09T01:32:20.583Z,100076.75
2023-11-09T01:34:47.638Z,100080.78
2023-11-09T01:37:14.598Z,100073.06
2023-11-09T01:39:41.547Z,100069.19
2023-11-09T01:42:09.002Z,100075.31
2023-11-09T01:44:37.059Z,100074.34
2023-11-09T01:47:04.587Z,100079.78
2023-11-09T01:49:31.791Z,100066.97
2023-11-09T01:51:58.943Z,100063.22
2023-11-09T01:54:27.550Z,100070.31
2023-11-09T01:56:54.505Z,100066.31
2023-11-09T01:59:22.717Z,100053.75
2023-11-09T02:01:53.822Z,100050.84
2023-11-09T02:04:21.774Z,100053.56
2023-11-09T02:06:49.369Z,100050.69
2023-11-09T02:09:16.321Z,100055.03
2023-11-09T02:11:43.926Z,100049.88
2023-11-09T02:14:11.649Z,100034.44
2023-11-09T02:16:39.269Z,100032.50
2023-11-09T02:19:08.921Z,100024.47
2023-11-09T02:21:56.804Z,100032.03
2023-11-09T02:24:26.760Z,100029.72
2023-11-09T02:26:56.408Z,100030.53
2023-11-09T02:29:23.396Z,100033.94
2023-11-09T02:31:50.741Z,100029.41
2023-11-09T02:34:22.084Z,100029.53
2023-11-09T02:36:49.419Z,100026.00
2023-11-09T02:39:16.382Z,100023.25
2023-11-09T02:41:44.153Z,100022.41
2023-11-09T02:44:11.079Z,100020.63
2023-11-09T02:46:38.592Z,100021.44
2023-11-09T02:49:05.500Z,100018.72
2023-11-09T02:51:32.716Z,100026.41
2023-11-09T02:53:59.642Z,100025.47
2023-11-09T02:56:27.054Z,100022.09
2023-11-09T02:58:54.310Z,100030.41
2023-11-09T03:01:21.768Z,100027.84
2023-11-09T03:03:52.742Z,100023.81
2023-11-09T03:06:22.572Z,100020.88
2023-11-09T03:08:49.484Z,100023.56
2023-11-09T03:11:20.644Z,100026.09
2023-11-09T03:13:48.021Z,100011.97
2023-11-09T03:16:15.069Z,100009.63
2023-11-09T03:18:45.756Z,100022.44
2023-11-09T03:21:12.722Z,100022.44
2023-11-09T03:23:39.579Z,100024.06
2023-11-09T03:26:06.501Z,100029.00
2023-11-09T03:28:35.059Z,100021.44
2023-11-09T03:31:05.370Z,100026.03
2023-11-09T03:33:33.340Z,100018.97
2023-11-09T03:36:01.058Z,100022.13
2023-11-09T03:38:28.459Z,100023.84
2023-11-09T03:40:55.770Z,100022.69
2023-11-09T03:43:22.773Z,100010.00
2023-11-09T03:45:49.692Z,100009.63
2023-11-09T03:48:16.704Z,100008.63
2023-11-09T03:50:44.416Z,100001.09
2023-11-09T03:53:11.599Z,99995.13
2023-11-09T03:55:38.675Z,99978.72
2023-11-09T03:58:05.586Z,99980.91
2023-11-09T04:00:32.492Z,99970.63
2023-11-09T04:03:01.543Z,99973.50
2023-11-09T04:05:28.442Z,99982.09
2023-11-09T04:07:55.317Z,99986.94
2023-11-09T04:10:22.951Z,99989.69
2023-11-09T04:12:49.824Z,99983.34
2023-11-09T04:15:16.752Z,99985.38
2023-11-09T04:17:43.813Z,99983.25
2023-11-09T04:20:10.995Z,99993.50
2023-11-09T04:22:37.954Z,99982.28
2023-11-09T04:25:05.510Z,99981.03
2023-11-09T04:27:35.826Z,99984.06
2023-11-09T04:30:02.969Z,99981.50
2023-11-09T04:32:33.391Z,99974.09
2023-11-09T04:35:00.428Z,99972.66
2023-11-09T04:37:27.600Z,99975.22
2023-11-09T04:39:59.893Z,99971.72
2023-11-09T04:42:30.715Z,99971.72
2023-11-09T04:45:01.169Z,99973.00
2023-11-09T04:47:31.394Z,99974.47
2023-11-09T04:50:03.200Z,99971.88
2023-11-09T04:52:35.293Z,99970.56
2023-11-09T04:55:12.191Z,99968.53
2023-11-09T04:57:59.270Z,99967.22
2023-11-09T05:01:01.680Z,99968.19
2023-11-09T05:03:47.208Z,99967.22
2023-11-09T05:06:32.507Z,99964.34
2023-11-09T05:09:00.493Z,99962.81
2023-11-09T05:11:27.572Z,99968.84
2023-11-09T05:13:54.943Z,99964.78
2023-11-09T05:16:22.321Z,99965.75
2023-11-09T05:18:49.442Z,99963.03
2023-11-09T05:21:16.338Z,99959.50
2023-11-09T05:23:43.242Z,99961.97
2023-11-09T05:26:10.208Z,99951.97
2023-11-09T05:28:37.084Z,99956.84
2023-11-09T05:31:04.041Z,99957.78
2023-11-09T05:33:31.051Z,99969.88
2023-11-09T05:35:58.954Z,99963.63
2023-11-09T05:38:25.806Z,99961.06
2023-11-09T05:40:53.392Z,99961.72
2023-11-09T05:43:21.058Z,99962.91
2023-11-09T05:45:48.046Z,99958.75
2023-11-09T05:48:15.057Z,99956.84
2023-11-09T05:50:42.608Z,99955.19
2023-11-09T05:53:09.505Z,99960.75
2023-11-09T05:55:36.488Z,99958.19
2023-11-09T05:58:04.949Z,99947.63
2023-11-09T06:00:32.561Z,99962.91
2023-11-09T06:02:59.666Z,99968.41
2023-11-09T06:05:26.763Z,99951.94
2023-11-09T06:07:54.404Z,99947.63
2023-11-09T06:10:22.836Z,99947.53
2023-11-09T06:12:49.966Z,99954.97
2023-11-09T06:15:17.154Z,99961.00
2023-11-09T06:17:45.144Z,99960.13
2023-11-09T06:20:18.444Z,99959.97
2023-11-09T06:22:45.586Z,99949.69
2023-11-09T06:25:14.006Z,99952.09
2023-11-09T06:27:42.581Z,99955.53
2023-11-09T06:30:10.441Z,99960.22
2023-11-09T06:32:37.515Z,99961.81
2023-11-09T06:35:06.240Z,99959.78
2023-11-09T06:37:36.125Z,99961.72
2023-11-09T06:40:12.714Z,99960.00
2023-11-09T06:42:43.890Z,99961.75
2023-11-09T06:45:10.845Z,99957.56
2023-11-09T06:47:40.209Z,99957.25
2023-11-09T06:50:22.463Z,99955.63
2023-11-09T06:52:52.186Z,99952.44
2023-11-09T06:55:19.235Z,99949.38
2023-11-09T06:57:47.196Z,99955.16
2023-11-09T07:00:14.693Z,99952.44
2023-11-09T07:02:44.818Z,99948.25
2023-11-09T07:05:12.405Z,99946.59
2023-11-09T07:07:39.478Z,99943.41
2023-11-09T07:10:08.607Z,99943.06
2023-11-09T07:12:39.693Z,99941.59
2023-11-09T07:15:10.548Z,99947.38
2023-11-09T07:17:37.440Z,99925.28
2023-11-09T07:20:04.738Z,99927.50
2023-11-09T07:22:31.744Z,99925.72
2023-11-09T07:25:08.216Z,99922.22
2023-11-09T07:27:40.392Z,99927.66
2023-11-09T07:30:08.221Z,99929.28
2023-11-09T07:32:36.541Z,99932.59
2023-11-09T07:35:03.798Z,99931.56
2023-11-09T07:37:30.978Z,99927.00
2023-11-09T07:39:59.036Z,99929.81
2023-11-09T07:42:26.408Z,99925.88
2023-11-09T07:44:53.364Z,99925.03
2023-11-09T07:47:20.280Z,99926.75
2023-11-09T07:49:48.331Z,99940.97
2023-11-09T07:52:16.249Z,99942.97
2023-11-09T07:54:45.268Z,99936.31
2023-11-09T07:57:12.871Z,99938.91
2023-11-09T07:59:40.159Z,99932.97
2023-11-09T08:02:08.522Z,99937.69
2023-11-09T08:04:36.049Z,99934.03
2023-11-09T08:07:03.304Z,99924.53
2023-11-09T08:09:31.344Z,99933.69
2023-11-09T08:11:58.543Z,99922.38
2023-11-09T08:14:27.621Z,99920.00
2023-11-09T08:16:54.556Z,99912.06
2023-11-09T08:19:23.524Z,99909.53
2023-11-09T08:21:50.695Z,99909.38
2023-11-09T08:24:18.213Z,99902.47
2023-11-09T08:26:45.291Z,99904.03
2023-11-09T08:29:12.250Z,99905.44
2023-11-09T08:31:39.889Z,99898.25
2023-11-09T08:34:08.151Z,99894.25
2023-11-09T08:36:35.278Z,99879.13
2023-11-09T08:39:04.000Z,99876.28
2023-11-09T08:41:32.067Z,99884.91
2023-11-09T08:43:58.987Z,99889.38
2023-11-09T08:46:25.959Z,99886.06
2023-11-09T08:48:52.884Z,99878.63
2023-11-09T08:51:19.781Z,99883.88
2023-11-09T08:53:50.754Z,99881.91
2023-11-09T08:56:19.942Z,99868.53
2023-11-09T08:58:47.649Z,99868.38
2023-11-09T09:01:20.762Z,99867.34
2023-11-09T09:03:51.341Z,99858.91
2023-11-09T09:06:19.157Z,99861.16
2023-11-09T09:08:47.957Z,99863.47
2023-11-09T09:11:15.800Z,99859.56
2023-11-09T09:13:45.907Z,99868.19
2023-11-09T09:16:16.986Z,99866.09
2023-11-09T09:18:47.750Z,99865.91
2023-11-09T09:21:16.001Z,99862.00
2023-11-09T09:23:42.953Z,99849.88
2023-11-09T09:26:15.471Z,99855.16
2023-11-09T09:28:50.325Z,99856.22
2023-11-09T09:31:20.892Z,99859.28
2023-11-09T09:34:03.858Z,99860.69
2023-11-09T09:36:31.003Z,99852.66
2023-11-09T09:38:58.387Z,99837.94
2023-11-09T09:41:30.083Z,99824.22
2023-11-09T09:44:00.139Z,99822.91
2023-11-09T09:46:29.813Z,99805.00
2023-11-09T09:48:56.901Z,99795.09
2023-11-09T09:51:23.916Z,99803.47
2023-11-09T09:53:52.708Z,99803.88
2023-11-09T09:56:20.707Z,99798.34
2023-11-09T09:58:49.209Z,99792.94
2023-11-09T10:01:20.874Z,99791.50
2023-11-09T10:03:50.295Z,99785.09
2023-11-09T10:06:19.109Z,99786.91
2023-11-09T10:08:46.469Z,99782.28
2023-11-09T10:11:16.787Z,99764.28
2023-11-09T10:13:47.957Z,99762.66
2023-11-09T10:16:20.229Z,99766.25
2023-11-09T10:18:50.280Z,99764.56
2023-11-09T10:21:19.196Z,99758.13
2023-11-09T10:23:54.547Z,99757.50
2023-11-09T10:26:21.568Z,99760.38
2023-11-09T10:28:56.767Z,99751.31
2023-11-09T10:31:32.807Z,99738.19
2023-11-09T10:33:59.872Z,99735.88
2023-11-09T10:36:27.190Z,99729.84
2023-11-09T10:38:54.410Z,99733.84
2023-11-09T10:41:53.439Z,99729.00
2023-11-09T10:44:11.646Z,99721.09
2023-11-09T10:46:41.607Z,99731.19
2023-11-09T10:49:09.757Z,99710.69
2023-11-09T10:51:38.835Z,99702.47
2023-11-09T10:54:09.433Z,99697.44
2023-11-09T10:56:37.173Z,99703.38
2023-11-09T10:59:06.591Z,99707.47
2023-11-09T11:01:34.580Z,99697.56
2023-11-09T11:04:09.694Z,99693.16
2023-11-09T11:06:53.018Z,99694.97
2023-11-09T11:09:26.910Z,99691.50
2023-11-09T11:12:03.428Z,99701.84
2023-11-09T11:14:33.256Z,99696.56
2023-11-09T11:17:09.021Z,99680.72
2023-11-09T11:19:50.887Z,99679.66
2023-11-09T11:22:46.020Z,99675.06
2023-11-09T11:25:39.343Z,99677.59
2023-11-09T11:28:12.402Z,99668.94
2023-11-09T11:30:42.729Z,99652.00
2023-11-09T11:33:20.317Z,99648.72
2023-11-09T11:35:52.862Z,99655.38
2023-11-09T11:38:30.277Z,99652.50
2023-11-09T11:41:04.076Z,99657.91
2023-11-09T11:43:44.535Z,99659.41
2023-11-09T11:46:18.704Z,99655.84
2023-11-09T11:48:54.801Z,99655.94
2023-11-09T11:51:23.449Z,99651.44
2023-11-09T11:53:59.512Z,99643.00
2023-11-09T11:56:34.422Z,99646.53
2023-11-09T11:59:08.569Z,99642.84
2023-11-09T12:01:35.994Z,99639.69
2023-11-09T12:04:06.325Z,99632.50
2023-11-09T12:06:37.045Z,99649.91
2023-11-09T12:09:10.054Z,99632.22
2023-11-09T12:11:48.505Z,99626.53
2023-11-09T12:14:20.873Z,99626.00
2023-11-09T12:16:48.750Z,99612.88
2023-11-09T12:19:17.674Z,99611.84
2023-11-09T12:21:48.584Z,99599.31
2023-11-09T12:24:24.967Z,99613.44
2023-11-09T12:27:10.109Z,99600.31
2023-11-09T12:29:39.479Z,99598.63
2023-11-09T12:32:07.908Z,99609.44
2023-11-09T12:34:37.834Z,99589.41
2023-11-09T12:37:12.302Z,99600.00
2023-11-09T12:39:40.229Z,99594.94
2023-11-09T12:42:07.198Z,99592.06
2023-11-09T12:44:36.566Z,99584.38
2023-11-09T12:47:22.407Z,99583.34
2023-11-09T12:49:54.888Z,99577.84
2023-11-09T12:52:28.123Z,99563.38
2023-11-09T12:54:57.311Z,99555.69
2023-11-09T12:57:24.710Z,99566.47
2023-11-09T12:59:52.490Z,99548.00
2023-11-09T13:02:22.147Z,99534.69
2023-11-09T13:04:53.889Z,99537.75
2023-11-09T13:07:26.405Z,99532.06
2023-11-09T13:10:12.804Z,99542.72
2023-11-09T13:12:44.852Z,99523.81
2023-11-09T13:15:12.669Z,99523.81
2023-11-09T13:17:54.757Z,99515.00
2023-11-09T13:20:31.928Z,99531.06
2023-11-09T13:23:08.731Z,99518.84
2023-11-09T13:25:46.535Z,99507.06
2023-11-09T13:28:17.265Z,99512.97
2023-11-09T13:31:00.947Z,99510.38
2023-11-09T13:33:38.732Z,99497.22
2023-11-09T13:36:11.132Z,99512.63
2023-11-09T13:38:58.150Z,99505.59
2023-11-09T13:41:40.664Z,99510.00
2023-11-09T13:44:08.675Z,99503.44
2023-11-09T13:46:42.277Z,99501.41
2023-11-09T13:49:30.666Z,99507.63
2023-11-09T13:51:58.353Z,99507.19
2023-11-09T13:54:37.683Z,99505.16
2023-11-09T13:57:14.551Z,99505.59
2023-11-09T13:59:46.624Z,99508.78
2023-11-09T14:02:17.804Z,99508.22
2023-11-09T14:04:53.174Z,99506.19
2023-11-09T14:07:21.619Z,99497.34
2023-11-09T14:09:48.570Z,99493.72
2023-11-09T14:12:35.524Z,99479.13
2023-11-09T14:15:10.063Z,99475.38
2023-11-09T14:17:37.865Z,99477.97
2023-11-09T14:20:14.078Z,99470.97
2023-11-09T14:22:41.806Z,99469.38
2023-11-09T14:25:11.215Z,99459.75
2023-11-09T14:27:38.142Z,99465.41
2023-11-09T14:30:05.509Z,99463.81
2023-11-09T14:32:35.006Z,99457.06
2023-11-09T14:35:03.555Z,99455.88
2023-11-09T14:37:34.033Z,99444.94
2023-11-09T14:40:20.264Z,99451.59
2023-11-09T14:43:03.775Z,99445.25
2023-11-09T14:45:36.611Z,99444.09
2023-11-09T14:48:04.349Z,99444.56
2023-11-09T14:50:33.758Z,99447.03
2023-11-09T14:53:07.185Z,99457.88
2023-11-09T14:55:35.223Z,99455.19
2023-11-09T14:58:27.296Z,99440.78
2023-11-09T15:00:54.222Z,99439.97
2023-11-09T15:03:24.640Z,99441.56
2023-11-09T15:05:59.061Z,99448.84
2023-11-09T15:08:29.698Z,99442.47
2023-11-09T15:10:57.915Z,99440.91
2023-11-09T15:13:27.411Z,99440.34
2023-11-09T15:15:54.742Z,99430.81
2023-11-09T15:18:22.819Z,99434.88
2023-11-09T15:20:50.290Z,99433.16
2023-11-09T15:23:17.204Z,99433.63
2023-11-09T15:25:48.748Z,99431.41
2023-11-09T15:28:15.842Z,99428.47
2023-11-09T15:30:43.245Z,99427.56
2023-11-09T15:33:15.821Z,99426.41
2023-11-09T15:35:47.293Z,99426.69
2023-11-09T15:38:14.882Z,99425.13
2023-11-09T15:41:15.213Z,99416.72
2023-11-09T15:43:39.713Z,99412.56
2023-11-09T15:46:12.389Z,99409.41
2023-11-09T15:48:43.599Z,99406.66
2023-11-09T15:51:10.813Z,99405.22
2023-11-09T15:53:45.114Z,99399.88
2023-11-09T15:56:13.562Z,99406.41
2023-11-09T15:58:43.114Z,99393.66
2023-11-09T16:01:11.582Z,99390.06
2023-11-09T16:03:40.535Z,99394.03
2023-11-09T16:06:10.325Z,99402.03
2023-11-09T16:08:37.371Z,99396.00
2023-11-09T16:11:04.627Z,99395.25
2023-11-09T16:13:31.698Z,99396.25
2023-11-09T16:15:59.309Z,99390.50
2023-11-09T16:18:28.040Z,99392.88
2023-11-09T16:20:55.047Z,99393.53
2023-11-09T16:23:22.147Z,99391.50
2023-11-09T16:25:49.458Z,99389.47
2023-11-09T16:28:22.174Z,99386.31
2023-11-09T16:30:50.962Z,99386.44
2023-11-09T16:33:18.720Z,99387.03
2023-11-09T16:35:46.778Z,99380.81
2023-11-09T16:38:14.177Z,99382.63
2023-11-09T16:40:41.964Z,99382.94
2023-11-09T16:43:09.876Z,99381.94
2023-11-09T16:45:37.057Z,99374.59
2023-11-09T16:48:05.447Z,99375.63
2023-11-09T16:50:33.684Z,99376.41
2023-11-09T16:53:01.207Z,99380.81
2023-11-09T16:55:29.240Z,99375.41
2023-11-09T16:57:56.282Z,99375.16
2023-11-09T17:00:24.882Z,99375.16
2023-11-09T17:02:52.507Z,99373.59
2023-11-09T17:05:20.052Z,99375.94
2023-11-09T17:07:47.744Z,99368.41
2023-11-09T17:10:15.697Z,99375.16
2023-11-09T17:12:43.664Z,99376.19
2023-11-09T17:15:13.337Z,99373.59
2023-11-09T17:17:45.107Z,99373.13
2023-11-09T17:20:13.973Z,99369.94
2023-11-09T17:22:44.697Z,99366.91
2023-11-09T17:25:12.047Z,99371.53
2023-11-09T17:27:39.245Z,99366.34
2023-11-09T17:30:13.792Z,99360.13
2023-11-09T17:32:41.513Z,99362.72
2023-11-09T17:35:10.330Z,99360.13
2023-11-09T17:37:38.954Z,99361.13
2023-11-09T17:40:12.488Z,99354.34
2023-11-09T17:42:40.568Z,99354.25
2023-11-09T17:45:08.555Z,99346.88
2023-11-09T17:47:35.831Z,99344.28
2023-11-09T17:50:03.002Z,99342.69
2023-11-09T17:52:31.882Z,99348.47
2023-11-09T17:54:59.715Z,99345.28
2023-11-09T17:57:26.602Z,99344.72
2023-11-09T17:59:53.545Z,99347.31
2023-11-09T18:02:20.518Z,99347.78
2023-11-09T18:04:47.528Z,99348.81
2023-11-09T18:07:16.062Z,99349.81
2023-11-09T18:09:44.824Z,99342.59
2023-11-09T18:12:11.933Z,99343.81
2023-11-09T18:14:44.957Z,99345.03
2023-11-09T18:17:16.542Z,99330.00
2023-11-09T18:19:43.358Z,99348.28
2023-11-09T18:22:10.266Z,99332.34
2023-11-09T18:24:38.452Z,99338.56
2023-11-09T18:27:06.190Z,99333.56
2023-11-09T18:29:33.889Z,99321.25
2023-11-09T18:32:00.922Z,99334.81
2023-11-09T18:34:29.761Z,99330.63
2023-11-09T18:36:56.966Z,99331.09
2023-11-09T18:39:24.065Z,99326.69
2023-11-09T18:41:51.005Z,99331.63
2023-11-09T18:44:20.128Z,99324.88
2023-11-09T18:46:50.095Z,99329.63
2023-11-09T18:51:47.195Z,99322.69
2023-11-09T18:54:14.226Z,99327.31
2023-11-09T18:56:41.200Z,99330.13
2023-11-09T18:59:08.090Z,99319.19
2023-11-09T19:01:35.879Z,99323.00
2023-11-09T19:06:33.227Z,99318.25
2023-11-09T19:09:00.750Z,99316.22
2023-11-09T19:11:28.743Z,99315.28
2023-11-09T19:13:56.345Z,99314.38
2023-11-09T19:16:23.586Z,99313.38
2023-11-09T19:18:51.389Z,99314.78
2023-11-09T19:23:49.267Z,99310.03
2023-11-09T19:26:16.613Z,99305.28
2023-11-09T19:28:43.513Z,99308.66
2023-11-09T19:31:10.748Z,99305.28
2023-11-09T19:33:38.772Z,99311.91
2023-11-09T19:36:09.789Z,99309.53
2023-11-09T19:38:37.373Z,99307.94
2023-11-09T19:41:04.542Z,99303.75
2023-11-09T19:43:31.380Z,99306.81
2023-11-09T19:45:58.483Z,99311.03
2023-11-09T19:48:25.583Z,99307.84
2023-11-09T19:50:52.585Z,99316.09
2023-11-09T19:53:20.641Z,99308.31
2023-11-09T19:55:47.812Z,99318.13
2023-11-09T19:58:15.755Z,99317.50
2023-11-09T20:00:45.260Z,99313.56
2023-11-09T20:03:13.115Z,99320.56
2023-11-09T20:05:41.254Z,99313.78
2023-11-09T20:08:09.218Z,99321.56
2023-11-09T20:10:36.301Z,99318.97
2023-11-09T20:13:04.959Z,99327.19
2023-11-09T20:15:32.452Z,99336.00
2023-11-09T20:18:01.372Z,99323.41
2023-11-09T20:20:31.768Z,99328.59
2023-11-09T20:22:59.298Z,99321.25
2023-11-09T20:25:27.208Z,99330.03
2023-11-09T20:27:55.983Z,99325.88
2023-11-09T20:30:23.663Z,99324.84
2023-11-09T20:32:51.163Z,99317.53
2023-11-09T20:35:18.548Z,99311.72
2023-11-09T20:37:45.978Z,99307.78
2023-11-09T20:40:18.072Z,99314.97
2023-11-09T20:42:46.703Z,99301.06
2023-11-09T20:45:14.067Z,99307.00
2023-11-09T20:47:42.233Z,99303.06
2023-11-09T20:50:15.640Z,99312.28
2023-11-09T20:52:48.594Z,99305.94
2023-11-09T20:55:21.400Z,99307.00
2023-11-09T20:57:50.829Z,99308.06
2023-11-09T21:00:25.264Z,99308.72
2023-11-09T21:02:54.619Z,99306.97
2023-11-09T21:05:22.942Z,99298.25
2023-11-09T21:07:51.427Z,99310.22
2023-11-09T21:10:18.863Z,99306.53
2023-11-09T21:12:47.118Z,99311.97
2023-11-09T21:15:14.373Z,99308.88
2023-11-09T21:17:44.122Z,99301.75
2023-11-09T21:20:13.665Z,99306.53
2023-11-09T21:22:40.722Z,99300.75
2023-11-09T21:25:08.728Z,99290.63
2023-11-09T21:27:35.769Z,99293.44
2023-11-09T21:30:03.785Z,99294.69
2023-11-09T21:32:32.117Z,99299.28
2023-11-09T21:34:59.123Z,99293.53
2023-11-09T21:37:28.797Z,99291.53
2023-11-09T21:39:56.063Z,99283.16
2023-11-09T21:42:23.047Z,99281.94
2023-11-09T21:44:50.145Z,99287.97
2023-11-09T21:47:17.810Z,99292.97
2023-11-09T21:49:48.529Z,99282.41
2023-11-09T21:52:15.498Z,99291.19
2023-11-09T21:54:42.964Z,99287.00
2023-11-09T21:57:14.538Z,99297.59
2023-11-09T21:59:42.194Z,99294.75
2023-11-09T22:02:09.787Z,99291.19
2023-11-09T22:04:39.032Z,99296.34
2023-11-09T22:07:06.427Z,99292.78
2023-11-09T22:09:34.598Z,99289.81
2023-11-09T22:12:02.601Z,99286.66
2023-11-09T22:14:30.547Z,99286.66
2023-11-09T22:16:59.038Z,99286.84
2023-11-09T22:19:26.144Z,99281.25
2023-11-09T22:21:53.157Z,99285.84
2023-11-09T22:24:20.133Z,99287.44
2023-11-09T22:26:50.205Z,99283.25
2023-11-09T22:29:17.152Z,99285.06
2023-11-09T22:31:44.483Z,99286.66
2023-11-09T22:34:11.414Z,99294.78
2023-11-09T22:36:38.970Z,99292.81
2023-11-09T22:39:06.706Z,99294.03
2023-11-09T22:41:33.835Z,99296.19
2023-11-09T22:44:00.794Z,99288.22
2023-11-09T22:46:27.911Z,99283.25
2023-11-09T22:48:55.718Z,99288.03
2023-11-09T22:51:22.830Z,99282.03
2023-11-09T22:53:49.965Z,99299.16
2023-11-09T22:56:16.791Z,99293.19
2023-11-09T22:58:43.679Z,99285.03
2023-11-09T23:01:10.547Z,99288.41
2023-11-09T23:03:37.720Z,99278.66
2023-11-09T23:06:04.905Z,99277.50
2023-11-09T23:08:35.404Z,99279.44
2023-11-09T23:11:02.593Z,99273.50
2023-11-09T23:13:29.738Z,99276.03
2023-11-09T23:15:57.945Z,99272.47
2023-11-09T23:18:25.678Z,99283.41
2023-11-09T23:20:53.397Z,99287.59
2023-11-09T23:23:20.377Z,99279.81
2023-11-09T23:25:47.945Z,99280.44
2023-11-09T23:28:15.072Z,99274.53
2023-11-09T23:30:44.154Z,99276.53
2023-11-09T23:33:11.414Z,99273.53
2023-11-09T23:35:38.730Z,99273.94
2023-11-09T23:38:05.541Z,99277.31
2023-11-09T23:40:32.549Z,99278.88
2023-11-09T23:42:59.398Z,99283.31
2023-11-09T23:45:27.990Z,99275.75
2023-11-09T23:47:55.058Z,99287.69
2023-11-09T23:50:21.896Z,99276.91
2023-11-09T23:52:48.910Z,99280.47
2023-11-09T23:55:17.450Z,99277.09
2023-11-09T23:57:46.586Z,99278.09
